Time;durP1;ratioP1;P1;durP2;ratioP2;P2;SDS_P1;SDS_P2;PMS_P1;PMS_P2;Temp;Humidity;BMP_temperature;BMP_pressure;BME280_temperature;BME280_humidity;BME280_pressure;Samples;Min_cycle;Max_cycle;Signal;HPM_P1;HPM_P2
2023/06/04 00:00:09;;;;;;;5.38;3.25;;;;;;;;;;5087596;28;20483;-60
2023/06/04 00:02:35;;;;;;;5.35;2.92;;;;;;;;;;5099703;28;20062;-61
2023/06/04 00:05:01;;;;;;;8.23;3.85;;;;;;;;;;5090842;28;20131;-61
2023/06/04 00:07:27;;;;;;;7.22;3.78;;;;;;;;;;5086638;28;20051;-61
2023/06/04 00:09:54;;;;;;;9.80;4.53;;;;;;;;;;5086589;28;20063;-61
2023/06/04 00:12:20;;;;;;;7.53;3.53;;;;;;;;;;5096018;28;20197;-61
2023/06/04 00:14:46;;;;;;;7.43;3.90;;;;;;;;;;5091970;28;20070;-61
2023/06/04 00:17:12;;;;;;;6.20;3.78;;;;;;;;;;5091602;28;20039;-61
2023/06/04 00:19:40;;;;;;;5.50;3.20;;;;;;;;;;5095226;28;20031;-62
2023/06/04 00:22:06;;;;;;;6.93;3.25;;;;;;;;;;5094117;28;20028;-61
2023/06/04 00:24:32;;;;;;;13.13;4.22;;;;;;;;;;5087376;28;20075;-61
2023/06/04 00:26:58;;;;;;;7.28;4.03;;;;;;;;;;5082215;28;20050;-61
2023/06/04 00:29:25;;;;;;;6.10;3.45;;;;;;;;;;5094162;28;20539;-61
2023/06/04 00:31:51;;;;;;;8.27;3.08;;;;;;;;;;5097717;28;20518;-61
2023/06/04 00:34:18;;;;;;;7.15;4.10;;;;;;;;;;5090709;28;20064;-61
2023/06/04 00:36:44;;;;;;;6.45;3.70;;;;;;;;;;5087763;28;20036;-62
2023/06/04 00:39:11;;;;;;;6.88;3.28;;;;;;;;;;5087808;28;20039;-61
2023/06/04 00:41:37;;;;;;;6.00;3.60;;;;;;;;;;5087010;28;20032;-61
2023/06/04 00:44:06;;;;;;;7.75;3.90;;;;;;;;;;5073330;28;20055;-61
2023/06/04 00:46:32;;;;;;;7.05;3.58;;;;;;;;;;5084204;28;20081;-61
2023/06/04 00:48:59;;;;;;;7.95;3.85;;;;;;;;;;5099516;28;20035;-61
2023/06/04 00:51:25;;;;;;;8.15;4.03;;;;;;;;;;5091644;28;20028;-61
2023/06/04 00:53:52;;;;;;;5.05;2.90;;;;;;;;;;5090462;28;20040;-61
2023/06/04 00:56:19;;;;;;;9.80;4.18;;;;;;;;;;5084626;28;20043;-60
2023/06/04 00:58:46;;;;;;;6.95;3.92;;;;;;;;;;5091474;28;20044;-60
2023/06/04 01:01:24;;;;;;;10.20;3.95;;;;;;;;;;5091782;28;20055;-60
2023/06/04 01:03:52;;;;;;;6.88;3.00;;;;;;;;;;5090903;28;20040;-62
2023/06/04 01:06:23;;;;;;;7.40;3.35;;;;;;;;;;5091685;28;20048;-61
2023/06/04 01:08:52;;;;;;;10.48;5.25;;;;;;;;;;5102374;28;20032;-59
2023/06/04 01:11:19;;;;;;;6.28;3.10;;;;;;;;;;5090119;28;20036;-61
2023/06/04 01:13:45;;;;;;;5.70;3.53;;;;;;;;;;5090737;28;20035;-60
2023/06/04 01:16:11;;;;;;;5.32;3.60;;;;;;;;;;5093136;28;20151;-60
2023/06/04 01:18:38;;;;;;;7.30;3.53;;;;;;;;;;5096439;28;20084;-60
2023/06/04 01:21:07;;;;;;;4.30;2.63;;;;;;;;;;5091661;28;20032;-60
2023/06/04 01:23:42;;;;;;;3.65;2.65;;;;;;;;;;5090712;28;20059;-60
2023/06/04 01:26:09;;;;;;;7.05;3.20;;;;;;;;;;5085649;28;20186;-61
2023/06/04 01:28:35;;;;;;;6.68;3.50;;;;;;;;;;5086477;28;20051;-60
2023/06/04 01:31:02;;;;;;;6.28;3.15;;;;;;;;;;5091810;28;20063;-60
2023/06/04 01:33:28;;;;;;;7.32;3.40;;;;;;;;;;5074830;28;20516;-60
2023/06/04 01:35:55;;;;;;;4.43;3.10;;;;;;;;;;5092719;28;20504;-60
2023/06/04 01:38:22;;;;;;;6.35;4.38;;;;;;;;;;5096951;28;20055;-61
2023/06/04 01:40:48;;;;;;;5.25;2.75;;;;;;;;;;5089707;28;20124;-61
2023/06/04 01:43:14;;;;;;;8.50;4.30;;;;;;;;;;5089390;28;20048;-61
2023/06/04 01:45:40;;;;;;;8.80;4.00;;;;;;;;;;5093483;28;20546;-61
2023/06/04 01:48:07;;;;;;;8.60;3.95;;;;;;;;;;5093679;28;20043;-61
2023/06/04 01:50:33;;;;;;;5.85;3.25;;;;;;;;;;5090364;28;20071;-61
2023/06/04 01:52:59;;;;;;;7.78;3.63;;;;;;;;;;5094884;28;20052;-61
2023/06/04 01:55:27;;;;;;;14.32;4.20;;;;;;;;;;5097345;28;20231;-61
2023/06/04 01:57:54;;;;;;;7.15;3.42;;;;;;;;;;5089085;28;20046;-61
2023/06/04 02:00:20;;;;;;;7.60;3.97;;;;;;;;;;5088806;28;20112;-61
2023/06/04 02:02:49;;;;;;;7.68;3.58;;;;;;;;;;5096343;28;20127;-61
2023/06/04 02:05:16;;;;;;;4.43;2.80;;;;;;;;;;5096649;28;20123;-61
2023/06/04 02:07:44;;;;;;;6.35;3.55;;;;;;;;;;5092446;28;20044;-61
2023/06/04 02:10:17;;;;;;;6.43;3.55;;;;;;;;;;5089127;28;20111;-61
2023/06/04 02:13:13;;;;;;;7.22;3.38;;;;;;;;;;5098154;28;20090;-61
2023/06/04 02:15:39;;;;;;;7.28;4.47;;;;;;;;;;5083439;28;20052;-62
2023/06/04 02:18:21;;;;;;;8.88;3.78;;;;;;;;;;5089266;28;20036;-62
2023/06/04 02:20:47;;;;;;;6.38;4.05;;;;;;;;;;5089586;28;20044;-62
2023/06/04 02:23:14;;;;;;;6.00;4.18;;;;;;;;;;5097661;28;20047;-61
2023/06/04 02:25:41;;;;;;;4.75;3.47;;;;;;;;;;5091684;28;20036;-62
2023/06/04 02:28:07;;;;;;;6.97;3.90;;;;;;;;;;5089756;28;20459;-61
2023/06/04 02:30:33;;;;;;;8.35;3.90;;;;;;;;;;5088559;28;20067;-61
2023/06/04 02:33:00;;;;;;;5.82;3.78;;;;;;;;;;5092986;28;20046;-62
2023/06/04 02:35:30;;;;;;;8.48;3.90;;;;;;;;;;5085309;28;20036;-61
2023/06/04 02:37:58;;;;;;;9.23;4.70;;;;;;;;;;5090325;28;20032;-62
2023/06/04 02:40:27;;;;;;;8.55;4.20;;;;;;;;;;5071081;28;20040;-61
2023/06/04 02:42:54;;;;;;;8.20;3.65;;;;;;;;;;5094864;28;20042;-60
2023/06/04 02:45:20;;;;;;;6.90;4.30;;;;;;;;;;5087380;28;20036;-60
2023/06/04 02:47:46;;;;;;;8.20;3.70;;;;;;;;;;5088491;28;20086;-60
2023/06/04 02:50:13;;;;;;;10.60;3.97;;;;;;;;;;5098116;28;20067;-60
2023/06/04 02:52:40;;;;;;;7.25;3.90;;;;;;;;;;5092908;28;20506;-60
2023/06/04 02:55:06;;;;;;;11.70;4.30;;;;;;;;;;5088468;28;20122;-60
2023/06/04 02:57:33;;;;;;;9.70;3.65;;;;;;;;;;5098343;28;20083;-60
2023/06/04 02:59:59;;;;;;;9.88;4.68;;;;;;;;;;5094641;28;20040;-60
2023/06/04 03:02:26;;;;;;;6.88;4.38;;;;;;;;;;5088058;28;20462;-60
2023/06/04 03:04:52;;;;;;;13.10;4.32;;;;;;;;;;5089707;28;20051;-60
2023/06/04 03:07:22;;;;;;;6.47;3.88;;;;;;;;;;5093704;28;20044;-59
2023/06/04 03:09:51;;;;;;;8.57;4.18;;;;;;;;;;5094544;28;20108;-60
2023/06/04 03:12:17;;;;;;;7.35;4.25;;;;;;;;;;5120615;27;20074;-61
2023/06/04 03:14:43;;;;;;;12.13;4.63;;;;;;;;;;5088547;28;20066;-60
2023/06/04 03:17:13;;;;;;;8.02;3.80;;;;;;;;;;5088120;28;20119;-60
2023/06/04 03:19:40;;;;;;;7.07;4.68;;;;;;;;;;5088697;28;20040;-60
2023/06/04 03:22:07;;;;;;;7.45;4.75;;;;;;;;;;5091015;28;20394;-60
2023/06/04 03:24:36;;;;;;;6.70;4.32;;;;;;;;;;5094665;28;20205;-60
2023/06/04 03:27:04;;;;;;;7.88;4.45;;;;;;;;;;5080277;28;20550;-61
2023/06/04 03:29:33;;;;;;;11.45;5.40;;;;;;;;;;5091338;28;20051;-60
2023/06/04 03:32:00;;;;;;;7.95;4.22;;;;;;;;;;5120115;27;20128;-60
2023/06/04 03:34:26;;;;;;;11.73;5.30;;;;;;;;;;5086181;28;20040;-61
2023/06/04 03:36:53;;;;;;;9.30;5.07;;;;;;;;;;5095640;28;20047;-60
2023/06/04 03:39:19;;;;;;;7.30;5.20;;;;;;;;;;5092809;28;20125;-60
2023/06/04 03:41:45;;;;;;;13.93;5.53;;;;;;;;;;5105621;27;20496;-60
2023/06/04 03:44:14;;;;;;;7.25;5.10;;;;;;;;;;5092794;28;20531;-60
2023/06/04 03:46:41;;;;;;;13.75;6.25;;;;;;;;;;5095048;28;20249;-61
2023/06/04 03:49:07;;;;;;;11.60;5.82;;;;;;;;;;5087311;28;20242;-60
2023/06/04 03:51:34;;;;;;;13.73;5.53;;;;;;;;;;5085568;28;20036;-61
2023/06/04 03:54:01;;;;;;;12.15;5.63;;;;;;;;;;5090822;28;20063;-61
2023/06/04 03:56:28;;;;;;;8.65;5.78;;;;;;;;;;5098190;28;20070;-60
2023/06/04 03:58:54;;;;;;;7.32;6.05;;;;;;;;;;5091602;28;20439;-60
2023/06/04 04:01:20;;;;;;;13.02;5.32;;;;;;;;;;5091735;28;20493;-60
2023/06/04 04:03:49;;;;;;;13.15;6.60;;;;;;;;;;5088706;28;20068;-60
2023/06/04 04:06:16;;;;;;;14.32;7.40;;;;;;;;;;5086999;28;20058;-60
2023/06/04 04:08:43;;;;;;;9.05;6.10;;;;;;;;;;5087882;28;20132;-60
2023/06/04 04:11:10;;;;;;;11.07;6.63;;;;;;;;;;5089604;28;20048;-60
2023/06/04 04:13:36;;;;;;;9.90;6.40;;;;;;;;;;5098378;28;20051;-61
2023/06/04 04:16:03;;;;;;;8.35;6.85;;;;;;;;;;5090663;28;20044;-60
2023/06/04 04:18:32;;;;;;;9.88;6.70;;;;;;;;;;5070887;28;20379;-60
2023/06/04 04:20:58;;;;;;;9.32;6.65;;;;;;;;;;5085956;28;20097;-61
2023/06/04 04:23:25;;;;;;;12.93;6.75;;;;;;;;;;5092962;28;20481;-60
2023/06/04 04:25:51;;;;;;;10.15;6.13;;;;;;;;;;5089968;28;20036;-60
2023/06/04 04:28:18;;;;;;;10.57;5.72;;;;;;;;;;5087533;28;20380;-60
2023/06/04 04:30:45;;;;;;;11.82;6.70;;;;;;;;;;5099942;28;20526;-61
2023/06/04 04:33:11;;;;;;;8.85;5.68;;;;;;;;;;5094204;28;20514;-61
2023/06/04 04:35:37;;;;;;;9.98;6.57;;;;;;;;;;5086941;28;20518;-61
2023/06/04 04:38:03;;;;;;;10.75;6.93;;;;;;;;;;5069585;28;20040;-61
2023/06/04 04:40:30;;;;;;;9.70;5.43;;;;;;;;;;5101506;28;20416;-61
2023/06/04 04:42:57;;;;;;;11.18;6.22;;;;;;;;;;5097762;28;20028;-61
2023/06/04 04:45:23;;;;;;;10.30;6.65;;;;;;;;;;5091256;28;20039;-61
2023/06/04 04:47:50;;;;;;;8.80;5.70;;;;;;;;;;5091702;28;20048;-61
2023/06/04 04:50:17;;;;;;;8.27;5.70;;;;;;;;;;5100236;28;20040;-60
2023/06/04 04:52:43;;;;;;;7.80;5.40;;;;;;;;;;5089807;28;20051;-60
2023/06/04 04:55:11;;;;;;;10.52;5.40;;;;;;;;;;5089710;28;20047;-60
2023/06/04 04:57:38;;;;;;;10.68;5.15;;;;;;;;;;5097558;28;20366;-60
2023/06/04 05:00:06;;;;;;;22.35;7.03;;;;;;;;;;5089534;28;20028;-60
2023/06/04 05:02:32;;;;;;;9.18;6.18;;;;;;;;;;5091567;28;20048;-60
2023/06/04 05:04:58;;;;;;;12.13;5.68;;;;;;;;;;5093122;28;20068;-60
2023/06/04 05:07:24;;;;;;;10.55;6.18;;;;;;;;;;5091057;28;20451;-61
2023/06/04 05:09:51;;;;;;;6.95;5.10;;;;;;;;;;5089119;28;20047;-61
2023/06/04 05:12:17;;;;;;;9.02;5.70;;;;;;;;;;5089881;28;20521;-61
2023/06/04 05:14:43;;;;;;;13.52;6.85;;;;;;;;;;5090468;28;20051;-60
2023/06/04 05:17:10;;;;;;;11.20;7.03;;;;;;;;;;5087263;28;20707;-60
2023/06/04 05:19:38;;;;;;;11.43;6.82;;;;;;;;;;5091199;28;20589;-60
2023/06/04 05:22:05;;;;;;;10.48;6.60;;;;;;;;;;5083948;28;20600;-60
2023/06/04 05:24:32;;;;;;;15.75;7.38;;;;;;;;;;5086469;28;20246;-61
2023/06/04 05:26:58;;;;;;;12.80;6.53;;;;;;;;;;5085219;28;20044;-60
2023/06/04 05:29:25;;;;;;;11.43;6.97;;;;;;;;;;5086866;28;20052;-60
2023/06/04 05:31:51;;;;;;;13.63;6.25;;;;;;;;;;5082492;28;20477;-61
2023/06/04 05:34:18;;;;;;;9.60;5.55;;;;;;;;;;5082572;28;20186;-61
2023/06/04 05:36:44;;;;;;;9.00;6.32;;;;;;;;;;5083632;28;20043;-61
2023/06/04 05:39:10;;;;;;;14.82;6.15;;;;;;;;;;5082858;28;20455;-60
2023/06/04 05:41:37;;;;;;;11.73;5.50;;;;;;;;;;5085715;28;20419;-60
2023/06/04 05:44:04;;;;;;;12.40;6.32;;;;;;;;;;5089373;28;20071;-61
2023/06/04 05:46:30;;;;;;;9.95;5.88;;;;;;;;;;5089040;28;20040;-61
2023/06/04 05:48:56;;;;;;;13.10;7.22;;;;;;;;;;5090787;28;20078;-61
2023/06/04 05:51:22;;;;;;;13.60;6.22;;;;;;;;;;5078964;28;20040;-60
2023/06/04 05:53:48;;;;;;;9.25;5.47;;;;;;;;;;5085680;28;20127;-60
2023/06/04 05:56:16;;;;;;;9.68;5.50;;;;;;;;;;5086309;28;20044;-61
2023/06/04 05:58:42;;;;;;;10.93;5.28;;;;;;;;;;5089986;28;20683;-61
2023/06/04 06:01:08;;;;;;;10.68;4.60;;;;;;;;;;5085468;28;20405;-61
2023/06/04 06:03:36;;;;;;;9.75;4.60;;;;;;;;;;5091592;28;20043;-60
2023/06/04 06:06:02;;;;;;;7.82;4.55;;;;;;;;;;5090194;28;20131;-61
2023/06/04 06:08:28;;;;;;;9.05;4.93;;;;;;;;;;5088911;28;20046;-61
2023/06/04 06:10:55;;;;;;;9.75;4.88;;;;;;;;;;5086126;28;20131;-61
2023/06/04 06:13:21;;;;;;;11.57;5.30;;;;;;;;;;5087015;28;20055;-60
2023/06/04 06:15:48;;;;;;;9.48;4.72;;;;;;;;;;5071978;28;20048;-60
2023/06/04 06:18:15;;;;;;;10.30;5.00;;;;;;;;;;5087452;28;20070;-61
2023/06/04 06:20:41;;;;;;;9.82;4.82;;;;;;;;;;5085750;28;20050;-60
2023/06/04 06:23:07;;;;;;;8.50;4.50;;;;;;;;;;5091664;28;20096;-61
2023/06/04 06:25:34;;;;;;;8.40;4.07;;;;;;;;;;5087441;28;20048;-61
2023/06/04 06:28:00;;;;;;;9.65;4.22;;;;;;;;;;5086200;28;20454;-61
2023/06/04 06:30:26;;;;;;;7.65;3.58;;;;;;;;;;5085651;28;20036;-61
2023/06/04 06:32:53;;;;;;;9.43;3.58;;;;;;;;;;5099294;28;20158;-61
2023/06/04 06:35:19;;;;;;;7.50;3.20;;;;;;;;;;5082086;27;20119;-60
2023/06/04 06:37:45;;;;;;;6.10;2.90;;;;;;;;;;5079059;28;20455;-61
2023/06/04 06:40:12;;;;;;;11.57;3.40;;;;;;;;;;5085476;28;20128;-61
2023/06/04 06:42:38;;;;;;;5.22;2.80;;;;;;;;;;5081696;28;20514;-61
2023/06/04 06:45:04;;;;;;;4.22;2.70;;;;;;;;;;5085035;28;20488;-60
2023/06/04 06:47:30;;;;;;;5.40;3.00;;;;;;;;;;5080705;28;20402;-61
2023/06/04 06:49:56;;;;;;;9.45;3.00;;;16.70;79.00;;;;;;5091250;28;20486;-61
2023/06/04 06:52:22;;;;;;;7.63;2.90;;;14.20;99.90;;;;;;5089645;28;20032;-62
2023/06/04 06:54:48;;;;;;;6.72;2.80;;;14.20;99.90;;;;;;5084247;28;20044;-62
2023/06/04 06:57:15;;;;;;;7.30;2.83;;;14.20;99.90;;;;;;5083131;28;20159;-62
2023/06/04 06:59:40;;;;;;;5.88;2.28;;;14.30;99.90;;;;;;5087828;28;20046;-62
2023/06/04 07:02:07;;;;;;;4.28;2.40;;;14.30;99.90;;;;;;5093145;28;20032;-62
2023/06/04 07:04:32;;;;;;;5.45;2.50;;;14.40;99.90;;;;;;5089225;28;20123;-62
2023/06/04 07:06:58;;;;;;;8.38;2.55;;;14.50;99.90;;;;;;5094921;28;20502;-61
2023/06/04 07:09:24;;;;;;;5.30;2.50;;;14.50;99.90;;;;;;5091856;28;20119;-62
2023/06/04 07:11:50;;;;;;;4.40;2.40;;;;;;;;;;5090319;28;20516;-61
2023/06/04 07:14:18;;;;;;;7.28;2.78;;;;;;;;;;5087756;28;20101;-62
2023/06/04 07:16:44;;;;;;;5.35;2.35;;;;;;;;;;5090624;28;20083;-62
2023/06/04 07:19:10;;;;;;;8.32;2.85;;;;;;;;;;5082852;28;20081;-62
2023/06/04 07:21:36;;;;;;;5.75;2.55;;;;;;;;;;5079253;28;20040;-62
2023/06/04 07:24:02;;;;;;;8.82;3.08;;;;;;;;;;5068606;28;20036;-62
2023/06/04 07:26:30;;;;;;;5.90;2.78;;;;;;;;;;5093438;28;20069;-61
2023/06/04 07:28:57;;;;;;;5.18;2.47;;;;;;;;;;5088075;28;20061;-61
2023/06/04 07:31:23;;;;;;;4.72;1.92;;;;;;;;;;5086549;28;20043;-61
2023/06/04 07:33:49;;;;;;;3.40;2.10;;;;;;;;;;5088750;28;20123;-61
2023/06/04 07:36:16;;;;;;;3.80;2.53;;;;;;;;;;5086272;28;20042;-61
2023/06/04 07:38:43;;;;;;;5.10;2.25;;;;;;;;;;5090514;28;20120;-61
2023/06/04 07:41:09;;;;;;;5.72;2.13;;;;;;;;;;5091003;28;20048;-61
2023/06/04 07:43:36;;;;;;;3.88;2.10;;;;;;;;;;5086168;28;20081;-61
2023/06/04 07:46:03;;;;;;;4.60;2.30;;;;;;;;;;5087200;28;20051;-61
2023/06/04 07:48:32;;;;;;;4.85;2.58;;;;;;;;;;5093594;28;20068;-61
2023/06/04 07:50:59;;;;;;;5.97;2.78;;;14.60;99.90;;;;;;5082612;28;20044;-61
2023/06/04 07:53:25;;;;;;;4.88;2.20;;;15.50;99.90;;;;;;5092695;28;20039;-61
2023/06/04 07:55:51;;;;;;;4.72;1.98;;;15.50;99.90;;;;;;5095915;28;20046;-61
2023/06/04 07:58:17;;;;;;;5.90;2.35;;;15.60;99.90;;;;;;5089694;28;20117;-61
2023/06/04 08:00:43;;;;;;;4.72;2.10;;;15.70;99.90;;;;;;5085679;28;20040;-61
2023/06/04 08:03:10;;;;;;;5.95;2.38;;;;;;;;;;5087867;28;20074;-60
2023/06/04 08:05:36;;;;;;;7.25;1.75;;;;;;;;;;5093297;28;20127;-61
2023/06/04 08:08:03;;;;;;;5.95;1.75;;;;;;;;;;5089642;28;20372;-61
2023/06/04 08:10:29;;;;;;;4.75;1.75;;;;;;;;;;5087208;28;20122;-61
2023/06/04 08:12:56;;;;;;;9.30;3.20;;;;;;;;;;5098686;28;20500;-60
2023/06/04 08:15:22;;;;;;;6.05;2.58;;;;;;;;;;5095323;28;20081;-61
2023/06/04 08:17:48;;;;;;;4.15;2.05;;;;;;;;;;5091132;28;20503;-61
2023/06/04 08:20:14;;;;;;;7.88;1.73;;;;;;;;;;5090776;28;20431;-61
2023/06/04 08:22:40;;;;;;;4.95;1.83;;;;;;;;;;5097280;28;20036;-61
2023/06/04 08:25:08;;;;;;;6.13;2.25;;;;;;;;;;5097323;28;20525;-61
2023/06/04 08:27:35;;;;;;;3.92;1.95;;;;;;;;;;5093232;28;20344;-61
2023/06/04 08:30:01;;;;;;;7.80;2.20;;;;;;;;;;5091493;28;20079;-61
2023/06/04 08:32:28;;;;;;;4.18;2.05;;;;;;;;;;5090642;28;20039;-61
2023/06/04 08:34:55;;;;;;;5.53;2.25;;;;;;;;;;5095813;28;20035;-61
2023/06/04 08:37:20;;;;;;;7.93;1.83;;;15.80;99.90;;;;;;5091421;28;20546;-61
2023/06/04 08:39:46;;;;;;;6.00;2.47;;;16.50;99.90;;;;;;5101789;28;20119;-61
2023/06/04 08:42:37;;;;;;;8.40;3.08;;;16.50;99.90;;;;;;5100002;28;20086;-61
2023/06/04 08:45:03;;;;;;;6.45;1.85;;;16.60;99.90;;;;;;5082800;28;20111;-61
2023/06/04 08:47:30;;;;;;;5.88;2.10;;;16.60;99.90;;;;;;5076337;28;20048;-61
2023/06/04 08:50:00;;;;;;;5.55;2.17;;;16.70;99.90;;;;;;5082125;28;20210;-61
2023/06/04 08:52:27;;;;;;;3.78;2.10;;;16.70;99.90;;;;;;5082952;28;20065;-61
2023/06/04 08:54:56;;;;;;;4.10;2.30;;;16.80;99.90;;;;;;5091478;28;20032;-61
2023/06/04 08:57:22;;;;;;;3.63;2.28;;;16.80;99.90;;;;;;5080829;28;20036;-61
2023/06/04 08:59:49;;;;;;;3.88;1.95;;;16.80;99.90;;;;;;5087393;28;20032;-61
2023/06/04 09:02:16;;;;;;;5.30;2.33;;;16.90;99.90;;;;;;5094468;28;20448;-61
2023/06/04 09:04:43;;;;;;;5.70;1.83;;;16.90;99.90;;;;;;5065929;28;20043;-61
2023/06/04 09:07:12;;;;;;;6.20;2.63;;;17.00;99.90;;;;;;5087142;28;20036;-61
2023/06/04 09:09:40;;;;;;;5.45;1.83;;;17.00;99.90;;;;;;5098611;28;20700;-61
2023/06/04 09:12:22;;;;;;;3.45;1.88;;;17.00;99.90;;;;;;5096738;28;20075;-61
2023/06/04 09:14:50;;;;;;;5.33;2.13;;;17.00;99.90;;;;;;5089768;28;20055;-61
2023/06/04 09:17:21;;;;;;;3.00;1.45;;;17.00;99.90;;;;;;5089983;28;20792;-61
2023/06/04 09:19:46;;;;;;;5.03;2.25;;;17.10;99.90;;;;;;5089830;28;20044;-61
2023/06/04 09:22:12;;;;;;;6.55;1.77;;;17.10;99.90;;;;;;5090953;28;20077;-61
2023/06/04 09:24:49;;;;;;;7.35;1.90;;;17.20;99.90;;;;;;5087586;28;20495;-61
2023/06/04 09:27:22;;;;;;;4.50;2.10;;;;;;;;;;5088738;28;20107;-61
2023/06/04 09:29:57;;;;;;;6.53;2.33;;;;;;;;;;5101282;28;20096;-60
2023/06/04 09:32:28;;;;;;;5.30;2.05;;;;;;;;;;5093737;27;20048;-61
2023/06/04 09:34:54;;;;;;;4.18;1.90;;;;;;;;;;5071755;28;20071;-61
2023/06/04 09:37:24;;;;;;;3.38;1.80;;;;;;;;;;5089832;28;20089;-62
2023/06/04 09:39:56;;;;;;;6.55;2.40;;;;;;;;;;5100548;28;20035;-62
2023/06/04 09:42:23;;;;;;;5.38;1.95;;;;;;;;;;5084231;28;20040;-61
2023/06/04 09:44:49;;;;;;;3.40;2.28;;;;;;;;;;5087884;28;20102;-62
2023/06/04 09:47:15;;;;;;;4.30;2.17;;;;;;;;;;5088257;28;20044;-62
2023/06/04 09:49:45;;;;;;;4.53;2.35;;;;;;;;;;5091950;28;20044;-61
2023/06/04 09:52:15;;;;;;;3.28;1.58;;;;;;;;;;5084883;28;20200;-61
2023/06/04 09:54:41;;;;;;;4.90;2.20;;;;;;;;;;5090609;28;20129;-62
2023/06/04 09:57:18;;;;;;;4.78;2.22;;;;;;;;;;5087603;28;20452;-61
2023/06/04 09:59:49;;;;;;;2.38;1.70;;;;;;;;;;5089042;28;20071;-61
2023/06/04 10:02:22;;;;;;;3.83;1.42;;;;;;;;;;5086971;28;20510;-61
2023/06/04 10:04:58;;;;;;;2.67;1.50;;;;;;;;;;5090015;28;20052;-62
2023/06/04 10:07:25;;;;;;;5.45;1.88;;;;;;;;;;5083072;28;20043;-61
2023/06/04 10:09:52;;;;;;;5.60;2.05;;;;;;;;;;5089334;28;20127;-61
2023/06/04 10:12:22;;;;;;;4.32;1.58;;;;;;;;;;5087599;28;20055;-61
2023/06/04 10:14:52;;;;;;;4.15;1.70;;;;;;;;;;5098803;28;20056;-61
2023/06/04 10:17:22;;;;;;;3.63;1.90;;;;;;;;;;5094801;28;20032;-61
2023/06/04 10:19:52;;;;;;;5.10;1.50;;;;;;;;;;5090000;28;20104;-61
2023/06/04 10:22:18;;;;;;;4.35;2.55;;;;;;;;;;5081947;28;20054;-61
2023/06/04 10:24:44;;;;;;;6.38;2.17;;;;;;;;;;5089719;28;20125;-62
2023/06/04 10:27:12;;;;;;;5.85;2.65;;;;;;;;;;5093471;28;20036;-61
2023/06/04 10:29:39;;;;;;;3.28;2.03;;;;;;;;;;5097776;28;20517;-61
2023/06/04 10:32:06;;;;;;;3.17;1.35;;;;;;;;;;5098967;28;20598;-61
2023/06/04 10:34:33;;;;;;;2.78;1.73;;;;;;;;;;5097107;28;20127;-61
2023/06/04 10:36:59;;;;;;;5.80;2.20;;;;;;;;;;5090481;28;20118;-61
2023/06/04 10:39:26;;;;;;;3.70;1.95;;;;;;;;;;5088863;28;20131;-61
2023/06/04 10:42:03;;;;;;;8.55;2.10;;;;;;;;;;5089732;28;20075;-61
2023/06/04 10:44:33;;;;;;;3.33;2.13;;;;;;;;;;5094281;28;20080;-61
2023/06/04 10:46:59;;;;;;;3.78;1.98;;;;;;;;;;5064577;28;20523;-61
2023/06/04 10:49:28;;;;;;;3.55;2.03;;;;;;;;;;5092413;28;20037;-61
2023/06/04 10:52:03;;;;;;;3.22;1.73;;;;;;;;;;5087447;28;20036;-61
2023/06/04 10:54:29;;;;;;;5.65;1.90;;;;;;;;;;5086816;28;20038;-61
2023/06/04 10:56:56;;;;;;;4.70;2.30;;;;;;;;;;5088756;28;20028;-62
2023/06/04 10:59:24;;;;;;;5.95;1.95;;;;;;;;;;5095513;28;20050;-61
2023/06/04 11:01:50;;;;;;;6.88;2.08;;;;;;;;;;5096795;28;20395;-61
2023/06/04 11:04:23;;;;;;;7.18;2.72;;;;;;;;;;5087769;28;20054;-61
2023/06/04 11:07:08;;;;;;;3.55;2.35;;;;;;;;;;5089783;28;20486;-61
2023/06/04 11:09:38;;;;;;;3.05;1.83;;;;;;;;;;5086324;28;20036;-61
2023/06/04 11:12:07;;;;;;;6.20;2.30;;;;;;;;;;5091298;28;20493;-61
2023/06/04 11:14:33;;;;;;;5.05;2.05;;;;;;;;;;5080391;28;20119;-61
2023/06/04 11:17:13;;;;;;;7.45;2.22;;;;;;;;;;5087446;28;20059;-61
2023/06/04 11:19:39;;;;;;;3.63;1.90;;;;;;;;;;5072823;28;20036;-61
2023/06/04 11:22:06;;;;;;;4.30;2.00;;;;;;;;;;5089389;28;20029;-61
2023/06/04 11:24:35;;;;;;;3.80;1.55;;;;;;;;;;5087608;28;20039;-61
2023/06/04 11:27:02;;;;;;;5.13;1.77;;;;;;;;;;5070589;28;20131;-61
2023/06/04 11:29:29;;;;;;;3.83;1.67;;;;;;;;;;5096198;28;20059;-62
2023/06/04 11:31:55;;;;;;;2.72;1.63;;;;;;;;;;5092827;28;20040;-61
2023/06/04 11:34:24;;;;;;;4.65;1.73;;;;;;;;;;5096676;28;20431;-61
2023/06/04 11:36:52;;;;;;;9.15;2.17;;;;;;;;;;5093676;28;20051;-62
2023/06/04 11:39:19;;;;;;;4.03;1.75;;;;;;;;;;5088617;28;20069;-62
2023/06/04 11:41:46;;;;;;;7.82;2.05;;;;;;;;;;5087830;28;20070;-62
2023/06/04 11:44:12;;;;;;;3.53;1.90;;;;;;;;;;5096518;28;20070;-62
2023/06/04 11:46:45;;;;;;;2.97;2.00;;;;;;;;;;5093118;28;20046;-61
2023/06/04 11:49:18;;;;;;;3.58;1.67;;;17.30;99.90;;;;;;5086956;28;20049;-61
2023/06/04 11:51:48;;;;;;;2.53;1.50;;;19.00;98.10;;;;;;5086883;28;20044;-62
2023/06/04 11:54:18;;;;;;;8.02;1.70;;;19.00;97.70;;;;;;5098304;28;20514;-61
2023/06/04 11:56:45;;;;;;;5.38;1.90;;;19.00;97.90;;;;;;5077746;28;20097;-61
2023/06/04 11:59:15;;;;;;;4.80;1.65;;;19.00;97.90;;;;;;5088864;28;20282;-62
2023/06/04 12:01:42;;;;;;;4.35;1.85;;;19.00;97.40;;;;;;5086576;28;20032;-62
2023/06/04 12:04:16;;;;;;;3.33;1.65;;;19.00;97.90;;;;;;5106863;28;20059;-62
2023/06/04 12:07:02;;;;;;;4.40;1.95;;;19.10;97.90;;;;;;5089947;28;20056;-62
2023/06/04 12:09:34;;;;;;;3.45;1.80;;;19.10;97.20;;;;;;5088851;28;20032;-61
2023/06/04 12:12:08;;;;;;;4.40;1.95;;;19.10;97.40;;;;;;5086208;28;20028;-62
2023/06/04 12:14:34;;;;;;;2.28;1.23;;;19.10;97.30;;;;;;5086217;28;20531;-61
2023/06/04 12:17:09;;;;;;;5.15;1.60;;;19.10;97.30;;;;;;5091550;28;20042;-61
2023/06/04 12:19:49;;;;;;;2.35;1.27;;;19.10;96.90;;;;;;5081237;28;20104;-61
2023/06/04 12:22:15;;;;;;;3.45;1.58;;;19.20;97.10;;;;;;5086394;28;20163;-61
2023/06/04 12:24:55;;;;;;;5.82;1.73;;;19.20;97.20;;;;;;5088938;28;20134;-61
2023/06/04 12:27:23;;;;;;;5.85;2.10;;;19.20;96.70;;;;;;5084590;28;20036;-62
2023/06/04 12:30:15;;;;;;;5.00;1.83;;;19.20;97.00;;;;;;5087431;28;20047;-62
2023/06/04 12:32:42;;;;;;;4.00;1.85;;;19.30;96.50;;;;;;5085541;28;20059;-62
2023/06/04 12:35:08;;;;;;;3.75;2.10;;;19.30;96.70;;;;;;5073140;28;20397;-62
2023/06/04 12:37:33;;;;;;;3.85;1.75;;;19.30;96.80;;;;;;5088753;28;20199;-61
2023/06/04 12:39:59;;;;;;;3.38;1.90;;;19.30;96.70;;;;;;5085799;28;20558;-62
2023/06/04 12:42:27;;;;;;;3.40;1.85;;;19.30;96.60;;;;;;5077417;28;20048;-61
2023/06/04 12:44:53;;;;;;;4.75;1.73;;;19.30;96.50;;;;;;5086329;28;20423;-61
2023/06/04 12:47:20;;;;;;;5.00;1.98;;;19.30;96.50;;;;;;5069335;28;20054;-61
2023/06/04 12:49:46;;;;;;;2.55;1.33;;;19.30;96.30;;;;;;5098516;28;20032;-64
2023/06/04 12:52:15;;;;;;;5.95;1.77;;;19.40;96.50;;;;;;5088695;28;20035;-62
2023/06/04 12:54:42;;;;;;;2.72;1.52;;;19.40;96.60;;;;;;5092735;28;20131;-62
2023/06/04 12:57:08;;;;;;;3.88;1.70;;;19.40;96.50;;;;;;5087392;28;20048;-61
2023/06/04 12:59:34;;;;;;;3.85;1.70;;;19.40;96.30;;;;;;5083201;28;20040;-61
2023/06/04 13:02:00;;;;;;;4.82;2.28;;;19.50;96.50;;;;;;5092419;28;20358;-61
2023/06/04 13:04:26;;;;;;;9.90;2.00;;;19.40;96.60;;;;;;5089435;28;20096;-63
2023/06/04 13:06:55;;;;;;;3.85;1.40;;;19.50;96.50;;;;;;5089381;28;20096;-62
2023/06/04 13:09:22;;;;;;;9.00;2.17;;;19.50;96.40;;;;;;5087531;28;20047;-61
2023/06/04 13:11:48;;;;;;;4.65;1.80;;;19.50;96.50;;;;;;5094236;28;20082;-61
2023/06/04 13:14:15;;;;;;;6.75;2.40;;;19.50;96.50;;;;;;5090921;28;20040;-61
2023/06/04 13:16:41;;;;;;;7.57;3.03;;;19.60;96.80;;;;;;5088361;28;20044;-61
2023/06/04 13:19:08;;;;;;;11.95;2.63;;;19.60;96.80;;;;;;5094648;28;20036;-61
2023/06/04 13:21:34;;;;;;;4.45;1.60;;;19.50;96.50;;;;;;5085552;28;20112;-62
2023/06/04 13:24:00;;;;;;;5.70;1.95;;;19.50;96.50;;;;;;5092272;28;20085;-62
2023/06/04 13:26:26;;;;;;;5.13;1.95;;;19.50;96.50;;;;;;5088309;28;20051;-61
2023/06/04 13:28:52;;;;;;;8.27;3.15;;;19.50;96.80;;;;;;5092372;28;20165;-65
2023/06/04 13:31:18;;;;;;;161.05;15.23;;;19.60;96.90;;;;;;5085626;28;20040;-63
2023/06/04 13:33:43;;;;;;;6.85;2.20;;;19.60;96.90;;;;;;5088549;28;20036;-65
2023/06/04 13:36:09;;;;;;;5.22;2.22;;;19.50;96.60;;;;;;5095162;28;20040;-64
2023/06/04 13:38:35;;;;;;;4.10;1.85;;;19.50;96.60;;;;;;5095221;28;20518;-64
2023/06/04 13:41:01;;;;;;;5.50;2.47;;;19.50;96.70;;;;;;5089975;28;20124;-64
2023/06/04 13:43:27;;;;;;;2.75;1.90;;;19.50;96.70;;;;;;5094158;28;20043;-63
2023/06/04 13:45:53;;;;;;;4.72;2.22;;;19.60;96.90;;;;;;5097172;28;20361;-64
2023/06/04 13:48:18;;;;;;;3.85;1.50;;;19.60;96.90;;;;;;5071551;28;20425;-63
2023/06/04 13:50:45;;;;;;;4.85;2.10;;;19.70;96.90;;;;;;5089029;28;20044;-63
2023/06/04 13:53:13;;;;;;;3.92;1.88;;;19.70;96.60;;;;;;5078495;28;20036;-64
2023/06/04 13:55:38;;;;;;;5.80;2.63;;;19.60;96.50;;;;;;5093568;28;20039;-65
2023/06/04 13:58:05;;;;;;;9.00;2.55;;;19.60;96.50;;;;;;5074235;28;20132;-63
2023/06/04 14:00:31;;;;;;;7.00;2.03;;;19.50;96.30;;;;;;5089410;28;20036;-63
2023/06/04 14:02:57;;;;;;;2.20;1.50;;;19.50;96.60;;;;;;5068837;28;20032;-64
2023/06/04 14:05:27;;;;;;;4.82;2.17;;;19.50;96.50;;;;;;5092942;28;20039;-65
2023/06/04 14:07:53;;;;;;;5.07;2.25;;;19.50;96.50;;;;;;5070590;28;20103;-65